Time;durP1;ratioP1;P1;durP2;ratioP2;P2;SDS_P1;SDS_P2;PMS_P1;PMS_P2;Temp;Humidity;BMP_temperature;BMP_pressure;BME280_temperature;BME280_humidity;BME280_pressure;Samples;Min_cycle;Max_cycle;Signal;HPM_P1;HPM_P2
2022/03/13 00:01:45;;;;;;;3.60;1.52;;;19.10;46.00;;;;;;4938907;29;20043;-85
2022/03/13 00:04:13;;;;;;;3.92;1.70;;;19.10;46.00;;;;;;4955680;29;20122;-86
2022/03/13 00:06:39;;;;;;;3.63;1.42;;;19.10;46.00;;;;;;4938797;29;20063;-86
2022/03/13 00:09:05;;;;;;;4.38;1.73;;;19.10;46.10;;;;;;4938813;29;20047;-86
2022/03/13 00:11:31;;;;;;;3.63;1.45;;;19.10;46.00;;;;;;4955271;29;20566;-86
2022/03/13 00:13:58;;;;;;;3.90;1.23;;;19.10;46.10;;;;;;4938544;29;20121;-86
2022/03/13 00:16:24;;;;;;;3.80;1.40;;;19.80;46.40;;;;;;4938663;29;20058;-86
2022/03/13 00:18:50;;;;;;;3.63;1.58;;;20.40;46.80;;;;;;4955109;29;20506;-86
2022/03/13 00:21:19;;;;;;;4.18;1.42;;;20.70;46.90;;;;;;4938656;29;20047;-86
2022/03/13 00:23:45;;;;;;;3.33;1.35;;;19.10;46.10;;;;;;4923206;29;20098;-86
2022/03/13 00:26:28;;;;;;;3.63;1.88;;;20.00;46.60;;;;;;4955349;29;20051;-86
2022/03/13 00:28:57;;;;;;;3.67;1.48;;;19.00;46.30;;;;;;4939957;29;20058;-86
2022/03/13 00:31:24;;;;;;;3.28;1.50;;;19.00;46.50;;;;;;4955961;29;20071;-86
2022/03/13 00:34:05;;;;;;;5.03;1.40;;;19.10;46.20;;;;;;4937692;29;20106;-86
2022/03/13 00:36:31;;;;;;;4.38;1.67;;;19.20;46.10;;;;;;4938598;29;20451;-86
2022/03/13 00:38:56;;;;;;;4.00;1.50;;;19.10;46.10;;;;;;4938657;29;20129;-86
2022/03/13 00:41:24;;;;;;;4.53;1.30;;;19.00;46.10;;;;;;4921691;29;20054;-86
2022/03/13 00:43:50;;;;;;;3.90;1.60;;;19.00;46.20;;;;;;4937970;29;20094;-86
2022/03/13 00:46:40;;;;;;;3.72;1.60;;;18.40;45.80;;;;;;4954966;29;20108;-85
2022/03/13 00:49:06;;;;;;;3.50;1.60;;;19.00;46.10;;;;;;4938026;29;20458;-86
2022/03/13 00:51:34;;;;;;;3.92;1.52;;;19.00;46.10;;;;;;5217339;23;20060;-86
2022/03/13 00:54:00;;;;;;;4.25;1.55;;;19.00;46.10;;;;;;4933920;29;20420;-86
2022/03/13 00:56:25;;;;;;;3.80;1.50;;;19.00;46.10;;;;;;4934968;29;20040;-87
2022/03/13 00:58:51;;;;;;;4.22;1.40;;;19.50;46.40;;;;;;4934657;29;20059;-86
2022/03/13 01:01:16;;;;;;;3.53;1.40;;;19.00;46.10;;;;;;4933611;29;20039;-86
2022/03/13 01:04:02;;;;;;;5.40;1.95;;;19.00;46.10;;;;;;4934679;29;20374;-86
2022/03/13 01:06:28;;;;;;;3.65;1.35;;;19.00;46.20;;;;;;4934625;29;20050;-86
2022/03/13 01:08:53;;;;;;;3.15;1.50;;;20.50;46.90;;;;;;4933922;29;20056;-85
2022/03/13 01:11:20;;;;;;;4.82;1.67;;;19.00;46.10;;;;;;4936124;29;20044;-86
2022/03/13 01:13:46;;;;;;;3.03;1.42;;;20.10;46.70;;;;;;4934625;29;20393;-86
2022/03/13 01:16:20;;;;;;;3.05;1.35;;;19.00;46.10;;;;;;4935366;29;20373;-85
2022/03/13 01:18:47;;;;;;;4.40;1.60;;;19.00;46.10;;;;;;4934999;29;20086;-86
2022/03/13 01:21:13;;;;;;;3.83;1.40;;;19.00;46.10;;;;;;4935669;29;20238;-86
2022/03/13 01:23:39;;;;;;;3.22;1.40;;;19.00;46.20;;;;;;4935080;29;20484;-85
2022/03/13 01:26:36;;;;;;;4.55;1.83;;;19.00;46.10;;;;;;4934156;29;20144;-86
2022/03/13 01:29:13;;;;;;;3.47;1.38;;;19.30;46.30;;;;;;4933551;29;20056;-86
2022/03/13 01:31:49;;;;;;;4.57;1.60;;;18.90;46.10;;;;;;4933826;29;20066;-85
2022/03/13 01:34:41;;;;;;;4.18;1.60;;;18.90;46.10;;;;;;4934332;29;20055;-86
2022/03/13 01:37:23;;;;;;;5.10;1.80;;;18.90;46.10;;;;;;4933346;29;20571;-85
2022/03/13 01:39:48;;;;;;;3.78;1.60;;;18.90;46.10;;;;;;4933993;29;20059;-86
2022/03/13 01:42:14;;;;;;;4.60;1.58;;;18.90;46.20;;;;;;4935238;29;20051;-85
2022/03/13 01:44:40;;;;;;;4.18;1.60;;;18.90;46.10;;;;;;4933092;29;20052;-86
2022/03/13 01:47:13;;;;;;;4.25;1.50;;;18.90;46.10;;;;;;4935677;29;20079;-86
2022/03/13 01:49:47;;;;;;;4.38;1.40;;;18.90;46.20;;;;;;4933186;29;20483;-86
2022/03/13 01:52:32;;;;;;;4.63;1.73;;;18.80;46.20;;;;;;4933195;29;20150;-86
2022/03/13 01:55:02;;;;;;;3.65;1.70;;;19.00;46.70;;;;;;4933331;29;20111;-86
2022/03/13 01:57:33;;;;;;;3.63;1.70;;;18.90;46.80;;;;;;4934229;29;20055;-86
2022/03/13 02:00:08;;;;;;;4.35;1.45;;;18.20;46.10;;;;;;4933859;29;20392;-85
2022/03/13 02:02:34;;;;;;;3.13;1.40;;;18.80;46.60;;;;;;4917805;29;20087;-86
2022/03/13 02:05:00;;;;;;;3.72;1.40;;;18.90;46.10;;;;;;4933114;29;20134;-86
2022/03/13 02:07:27;;;;;;;3.72;1.60;;;20.40;46.90;;;;;;4933833;29;20047;-86
2022/03/13 02:09:53;;;;;;;3.53;1.60;;;18.90;46.10;;;;;;4933562;29;20048;-86
2022/03/13 02:12:20;;;;;;;4.70;1.67;;;20.30;46.80;;;;;;4932087;29;20047;-85
2022/03/13 02:14:49;;;;;;;3.75;1.52;;;18.90;46.10;;;;;;4934559;29;20059;-86
2022/03/13 02:17:32;;;;;;;4.88;1.77;;;18.90;46.10;;;;;;4933368;29;20487;-86
2022/03/13 02:19:58;;;;;;;3.67;1.60;;;18.90;46.10;;;;;;4932645;29;20708;-86
2022/03/13 02:22:24;;;;;;;3.60;1.42;;;18.90;46.10;;;;;;4932657;29;20106;-85
2022/03/13 02:24:51;;;;;;;4.13;1.40;;;18.90;46.10;;;;;;4932444;29;20048;-85
2022/03/13 02:27:19;;;;;;;3.88;1.40;;;18.90;46.10;;;;;;4933459;29;20801;-85
2022/03/13 02:29:45;;;;;;;4.57;1.63;;;18.90;46.10;;;;;;4933374;29;20039;-85
2022/03/13 02:32:11;;;;;;;3.95;1.50;;;18.90;46.10;;;;;;4932216;29;20571;-85
2022/03/13 02:34:36;;;;;;;2.97;1.38;;;18.90;46.10;;;;;;4933054;29;20043;-85
2022/03/13 02:37:02;;;;;;;4.70;1.65;;;18.80;46.10;;;;;;4932897;29;20067;-86
2022/03/13 02:39:29;;;;;;;3.15;1.50;;;18.80;46.00;;;;;;4933082;29;20110;-86
2022/03/13 02:41:54;;;;;;;4.00;1.40;;;18.80;46.00;;;;;;4934606;29;20378;-86
2022/03/13 02:44:20;;;;;;;3.95;1.42;;;18.80;46.00;;;;;;4934112;29;20496;-86
2022/03/13 02:46:45;;;;;;;3.75;1.60;;;18.80;46.10;;;;;;4932243;29;20051;-86
2022/03/13 02:49:15;;;;;;;5.07;1.90;;;18.80;46.10;;;;;;4932945;29;20114;-86
2022/03/13 02:51:41;;;;;;;5.43;1.73;;;18.80;46.10;;;;;;4932626;29;20064;-86
2022/03/13 02:54:08;;;;;;;2.70;1.13;;;18.80;46.00;;;;;;4932322;29;20551;-86
2022/03/13 02:56:33;;;;;;;4.63;1.90;;;18.80;46.00;;;;;;4932593;29;20052;-86
2022/03/13 02:59:02;;;;;;;3.58;1.42;;;18.80;46.10;;;;;;4933012;29;20043;-86
2022/03/13 03:01:30;;;;;;;3.55;1.58;;;18.80;46.10;;;;;;4932125;29;20047;-86
2022/03/13 03:03:58;;;;;;;4.15;1.80;;;18.80;46.10;;;;;;4932836;29;20044;-86
2022/03/13 03:06:24;;;;;;;2.90;1.25;;;18.80;46.00;;;;;;4932787;29;20056;-87
2022/03/13 03:08:50;;;;;;;3.80;1.58;;;18.80;46.10;;;;;;4932012;29;20040;-86
2022/03/13 03:11:16;;;;;;;3.53;1.60;;;18.80;46.00;;;;;;4932542;29;20051;-86
2022/03/13 03:13:42;;;;;;;3.63;1.52;;;20.00;46.70;;;;;;4933936;29;20091;-86
2022/03/13 03:16:10;;;;;;;2.88;1.50;;;18.80;46.10;;;;;;4931737;29;20035;-86
2022/03/13 03:18:36;;;;;;;3.50;1.58;;;18.80;46.10;;;;;;4932392;29;20090;-86
2022/03/13 03:21:01;;;;;;;3.45;1.58;;;18.80;46.10;;;;;;4931580;29;20140;-86
2022/03/13 03:23:27;;;;;;;2.38;1.20;;;18.80;46.10;;;;;;4932231;29;20044;-86
2022/03/13 03:25:52;;;;;;;3.03;1.38;;;18.80;46.10;;;;;;4932468;29;20047;-86
2022/03/13 03:28:18;;;;;;;3.35;1.48;;;18.80;46.00;;;;;;4931709;29;20052;-85
2022/03/13 03:30:44;;;;;;;3.50;1.50;;;18.70;46.00;;;;;;4933825;29;20052;-85
2022/03/13 03:33:10;;;;;;;3.58;1.70;;;18.70;46.00;;;;;;4916296;29;20486;-85
2022/03/13 03:35:42;;;;;;;3.83;1.50;;;18.70;46.00;;;;;;4931676;29;20069;-85
2022/03/13 03:38:07;;;;;;;2.90;1.30;;;19.20;46.30;;;;;;4932196;29;20495;-85
2022/03/13 03:40:33;;;;;;;2.50;1.30;;;18.70;46.00;;;;;;4933418;29;20131;-85
2022/03/13 03:43:00;;;;;;;3.97;1.80;;;18.70;46.00;;;;;;4931528;29;20048;-84
2022/03/13 03:45:26;;;;;;;3.33;1.80;;;18.70;46.00;;;;;;4932096;29;20052;-85
2022/03/13 03:47:52;;;;;;;3.17;1.27;;;18.70;46.00;;;;;;4932326;29;20102;-86
2022/03/13 03:50:18;;;;;;;4.30;1.70;;;18.70;46.00;;;;;;4931648;29;20131;-86
2022/03/13 03:52:44;;;;;;;2.92;1.48;;;18.70;46.00;;;;;;4931911;29;20055;-85
2022/03/13 03:55:10;;;;;;;2.90;1.30;;;18.70;46.00;;;;;;4931273;29;20111;-85
2022/03/13 03:57:36;;;;;;;4.28;1.88;;;18.70;46.00;;;;;;4931328;29;20052;-86
2022/03/13 04:00:03;;;;;;;2.95;1.40;;;18.70;46.00;;;;;;4933403;29;20051;-85
2022/03/13 04:02:28;;;;;;;3.58;1.50;;;18.70;46.00;;;;;;4916482;29;20055;-85
2022/03/13 04:04:54;;;;;;;3.95;1.60;;;18.70;46.00;;;;;;4932570;29;20049;-85
2022/03/13 04:07:19;;;;;;;3.00;1.48;;;18.70;46.00;;;;;;4931890;29;20047;-85
2022/03/13 04:09:45;;;;;;;3.55;1.63;;;18.70;46.00;;;;;;4932003;29;20052;-86
2022/03/13 04:12:13;;;;;;;2.95;1.42;;;19.50;46.40;;;;;;4940734;23;20067;-85
2022/03/13 04:14:39;;;;;;;2.28;1.30;;;18.70;46.00;;;;;;4935081;29;20051;-85
2022/03/13 04:17:08;;;;;;;3.03;1.48;;;18.70;46.00;;;;;;4952472;29;20098;-86
2022/03/13 04:19:33;;;;;;;4.00;1.45;;;18.70;46.10;;;;;;4934312;29;20090;-85
2022/03/13 04:21:59;;;;;;;3.40;1.33;;;19.00;46.20;;;;;;4934997;29;20126;-85
2022/03/13 04:24:25;;;;;;;3.88;1.42;;;18.70;46.00;;;;;;4934085;29;20085;-85
2022/03/13 04:26:50;;;;;;;3.90;1.75;;;18.70;46.00;;;;;;4934948;29;20102;-85
2022/03/13 04:29:16;;;;;;;3.03;1.50;;;18.70;46.10;;;;;;4934718;29;20051;-85
2022/03/13 04:31:43;;;;;;;3.40;1.50;;;19.40;46.40;;;;;;4934164;29;20134;-85
2022/03/13 04:34:09;;;;;;;3.25;1.38;;;18.70;46.00;;;;;;4934835;29;20078;-85
2022/03/13 04:36:37;;;;;;;4.28;1.55;;;19.20;46.30;;;;;;4937822;29;20051;-85
2022/03/13 04:39:06;;;;;;;3.63;1.85;;;18.70;46.00;;;;;;4937924;29;20054;-84
2022/03/13 04:41:35;;;;;;;2.30;1.27;;;18.70;46.00;;;;;;4938516;29;20051;-86
2022/03/13 04:44:00;;;;;;;2.95;1.55;;;18.60;46.00;;;;;;4938486;29;20043;-87
2022/03/13 04:46:26;;;;;;;2.50;1.20;;;18.70;46.00;;;;;;4938078;29;20129;-86
2022/03/13 04:48:55;;;;;;;3.30;1.60;;;18.60;46.60;;;;;;4938412;29;20055;-86
2022/03/13 04:51:20;;;;;;;3.10;1.52;;;18.60;46.00;;;;;;4938394;29;20114;-87
2022/03/13 04:53:49;;;;;;;4.18;1.50;;;18.60;46.00;;;;;;4937276;29;20499;-86
2022/03/13 04:56:14;;;;;;;3.80;1.60;;;18.60;46.00;;;;;;4938227;29;20232;-86
2022/03/13 04:58:40;;;;;;;3.17;1.40;;;18.60;46.00;;;;;;4955557;29;20502;-86
2022/03/13 05:01:05;;;;;;;3.58;1.77;;;18.60;46.00;;;;;;4937328;29;20047;-86
2022/03/13 05:03:33;;;;;;;3.88;1.45;;;18.60;46.00;;;;;;4938168;29;20062;-86
2022/03/13 05:06:00;;;;;;;2.67;1.60;;;18.60;45.90;;;;;;4938175;29;20057;-85
2022/03/13 05:08:26;;;;;;;3.05;1.50;;;18.60;45.90;;;;;;4954240;29;20043;-86
2022/03/13 05:10:54;;;;;;;4.28;1.52;;;18.60;46.00;;;;;;4937625;29;20058;-86
2022/03/13 05:13:29;;;;;;;3.70;1.67;;;18.60;46.00;;;;;;4937576;29;20059;-86
2022/03/13 05:15:55;;;;;;;3.67;1.55;;;18.60;46.00;;;;;;4937759;29;20043;-86
2022/03/13 05:18:23;;;;;;;3.10;1.60;;;18.60;46.00;;;;;;4954947;29;20189;-86
2022/03/13 05:20:52;;;;;;;3.50;1.63;;;19.70;46.50;;;;;;4936724;29;20043;-86
2022/03/13 05:23:20;;;;;;;4.22;1.90;;;19.90;46.70;;;;;;4937954;29;20047;-87
2022/03/13 05:25:52;;;;;;;2.70;1.33;;;18.60;46.00;;;;;;4938072;29;20475;-86
2022/03/13 05:28:17;;;;;;;2.97;1.48;;;18.50;45.90;;;;;;4936881;29;20166;-86
2022/03/13 05:30:46;;;;;;;3.35;1.50;;;18.60;46.00;;;;;;4955006;29;20130;-87
2022/03/13 05:33:12;;;;;;;4.18;1.67;;;18.60;46.00;;;;;;4937250;29;20134;-87
2022/03/13 05:35:37;;;;;;;3.55;1.77;;;18.60;46.00;;;;;;4936545;29;20138;-86
2022/03/13 05:38:03;;;;;;;3.78;1.58;;;18.60;46.00;;;;;;4937344;29;20055;-87
2022/03/13 05:40:36;;;;;;;2.80;1.38;;;18.60;46.00;;;;;;4937257;29;20502;-87
2022/03/13 05:43:03;;;;;;;2.67;1.27;;;18.60;46.00;;;;;;4936775;29;20055;-87
2022/03/13 05:45:29;;;;;;;3.10;1.42;;;18.50;45.90;;;;;;4937269;29;20058;-87
2022/03/13 05:47:55;;;;;;;3.75;1.60;;;18.60;46.00;;;;;;4936185;29;20051;-86
2022/03/13 05:50:22;;;;;;;3.10;1.50;;;18.50;45.90;;;;;;4936899;29;20087;-87
2022/03/13 05:52:51;;;;;;;3.47;1.48;;;18.50;45.90;;;;;;4936792;29;20102;-87
2022/03/13 05:55:17;;;;;;;3.00;1.60;;;20.00;46.70;;;;;;4935895;29;20086;-87
2022/03/13 05:57:45;;;;;;;3.33;1.50;;;18.50;45.90;;;;;;4936197;29;20105;-86
2022/03/13 06:00:13;;;;;;;3.30;1.40;;;18.50;45.90;;;;;;4954252;29;20055;-87
2022/03/13 06:02:40;;;;;;;4.03;1.85;;;18.50;46.00;;;;;;4936592;29;20050;-86
2022/03/13 06:05:10;;;;;;;3.67;1.85;;;18.50;45.90;;;;;;4936669;29;20051;-86
2022/03/13 06:07:37;;;;;;;3.03;1.50;;;18.50;45.90;;;;;;4936623;29;20133;-86
2022/03/13 06:10:04;;;;;;;3.58;1.67;;;19.30;46.30;;;;;;4936053;29;20055;-86
2022/03/13 06:12:30;;;;;;;3.15;1.60;;;18.50;45.90;;;;;;4933160;29;20056;-86
2022/03/13 06:14:59;;;;;;;2.67;1.23;;;18.50;46.00;;;;;;4933603;29;20416;-86
2022/03/13 06:17:25;;;;;;;3.90;1.60;;;18.60;46.00;;;;;;4933441;29;20074;-86
2022/03/13 06:19:51;;;;;;;4.55;1.65;;;18.50;46.10;;;;;;4934798;29;20047;-85
2022/03/13 06:22:18;;;;;;;3.10;1.50;;;18.50;45.90;;;;;;4934385;29;20071;-86
2022/03/13 06:24:43;;;;;;;3.47;1.90;;;18.50;45.90;;;;;;4933922;29;20066;-86
2022/03/13 06:27:10;;;;;;;2.00;1.15;;;18.50;45.90;;;;;;4933212;29;20126;-86
2022/03/13 06:29:37;;;;;;;2.83;1.40;;;18.50;46.00;;;;;;4933164;29;20055;-85
2022/03/13 06:32:03;;;;;;;2.65;1.20;;;18.50;46.00;;;;;;4928069;29;20107;-86
2022/03/13 06:34:29;;;;;;;3.75;1.40;;;18.50;45.90;;;;;;4929286;29;20051;-85
2022/03/13 06:36:54;;;;;;;3.10;1.40;;;18.50;45.90;;;;;;4931287;29;20138;-86
2022/03/13 06:39:23;;;;;;;2.60;1.50;;;18.50;45.90;;;;;;4927555;29;20040;-85
2022/03/13 06:41:52;;;;;;;3.25;1.58;;;18.50;45.90;;;;;;4934581;29;20096;-86
2022/03/13 06:44:18;;;;;;;2.60;1.30;;;18.40;45.90;;;;;;4932441;29;20067;-86
2022/03/13 06:46:44;;;;;;;2.83;1.40;;;18.50;45.90;;;;;;4933656;29;20059;-86
2022/03/13 06:49:09;;;;;;;2.28;1.45;;;18.50;46.00;;;;;;4934024;29;20051;-86
2022/03/13 06:51:37;;;;;;;2.75;1.48;;;18.50;45.90;;;;;;4921251;29;20083;-86
2022/03/13 06:54:03;;;;;;;3.40;1.60;;;18.40;45.90;;;;;;4920108;29;20083;-85
2022/03/13 06:56:29;;;;;;;4.10;1.52;;;18.50;45.90;;;;;;4902111;29;20060;-85
2022/03/13 06:58:58;;;;;;;3.05;1.58;;;19.20;46.30;;;;;;4928779;29;20055;-85
2022/03/13 07:01:24;;;;;;;2.78;1.55;;;18.40;46.60;;;;;;4932218;29;20139;-85
2022/03/13 07:03:50;;;;;;;4.05;1.42;;;18.40;45.90;;;;;;4932258;29;20134;-86
2022/03/13 07:06:27;;;;;;;2.42;1.30;;;18.40;45.90;;;;;;4933070;29;20452;-85
2022/03/13 07:08:52;;;;;;;2.30;1.35;;;18.40;45.90;;;;;;4921015;29;20496;-85
2022/03/13 07:11:21;;;;;;;3.13;1.65;;;18.40;45.90;;;;;;4918743;29;20118;-85
2022/03/13 07:13:51;;;;;;;2.92;1.50;;;18.40;45.90;;;;;;4977033;23;20052;-85
2022/03/13 07:16:17;;;;;;;2.65;1.48;;;18.40;45.90;;;;;;4932371;29;20051;-86
2022/03/13 07:18:43;;;;;;;2.78;1.35;;;18.40;45.90;;;;;;4932267;29;20106;-85
2022/03/13 07:21:09;;;;;;;3.55;1.60;;;18.40;45.80;;;;;;4931534;29;20511;-86
2022/03/13 07:23:35;;;;;;;2.97;1.38;;;18.40;45.90;;;;;;4932502;29;20410;-85
2022/03/13 07:26:00;;;;;;;2.75;1.20;;;19.40;46.40;;;;;;4932312;29;20796;-86
2022/03/13 07:28:26;;;;;;;2.83;1.38;;;18.40;45.90;;;;;;4933129;29;20090;-86
2022/03/13 07:30:52;;;;;;;2.90;1.40;;;18.70;46.00;;;;;;4931970;29;20062;-85
2022/03/13 07:33:17;;;;;;;2.55;1.40;;;18.40;45.80;;;;;;4913679;29;20044;-86
2022/03/13 07:35:44;;;;;;;2.50;1.30;;;18.40;45.80;;;;;;4912832;29;20132;-85
2022/03/13 07:38:10;;;;;;;2.97;1.40;;;18.40;45.90;;;;;;4913392;29;20145;-86
2022/03/13 07:40:35;;;;;;;2.78;1.38;;;18.40;45.80;;;;;;4913204;29;20477;-85
2022/03/13 07:43:07;;;;;;;2.85;1.42;;;18.40;45.80;;;;;;4913770;29;20048;-86
2022/03/13 07:45:36;;;;;;;2.72;1.27;;;19.50;46.50;;;;;;4898393;29;20082;-86
2022/03/13 07:48:01;;;;;;;2.45;1.25;;;19.10;46.40;;;;;;4914590;29;20052;-86
2022/03/13 07:50:39;;;;;;;2.85;1.40;;;18.40;46.10;;;;;;4912658;29;20067;-85
2022/03/13 07:53:04;;;;;;;3.25;1.40;;;18.40;45.90;;;;;;4912898;29;20484;-86
2022/03/13 07:55:30;;;;;;;2.33;1.33;;;18.40;45.90;;;;;;4912338;29;20052;-85
2022/03/13 07:57:56;;;;;;;2.70;1.40;;;18.40;45.90;;;;;;4914425;29;20060;-86
2022/03/13 08:00:23;;;;;;;2.55;1.27;;;18.40;45.90;;;;;;4913068;29;20516;-82
2022/03/13 08:02:49;;;;;;;2.50;1.30;;;18.40;45.90;;;;;;4913802;29;20048;-83
2022/03/13 08:05:18;;;;;;;2.88;1.42;;;18.40;45.90;;;;;;4919589;29;20052;-85
2022/03/13 08:07:52;;;;;;;3.10;1.48;;;19.10;46.30;;;;;;4924163;29;20055;-86
2022/03/13 08:10:20;;;;;;;2.75;1.30;;;18.40;45.90;;;;;;4931814;29;20514;-85
2022/03/13 08:12:47;;;;;;;2.28;1.48;;;18.40;45.90;;;;;;4938588;29;20055;-85
2022/03/13 08:15:13;;;;;;;2.38;1.20;;;18.40;45.90;;;;;;4938831;29;20495;-86
2022/03/13 08:17:39;;;;;;;3.45;1.40;;;18.40;45.90;;;;;;4955389;29;20047;-85
2022/03/13 08:20:13;;;;;;;3.17;1.30;;;18.40;45.90;;;;;;4955521;29;20447;-84
2022/03/13 08:22:38;;;;;;;2.25;1.20;;;18.90;46.20;;;;;;4956206;29;20086;-84
2022/03/13 08:25:08;;;;;;;3.58;1.65;;;19.80;46.70;;;;;;4937632;29;20078;-84
2022/03/13 08:27:34;;;;;;;3.65;1.70;;;18.40;45.90;;;;;;4937958;29;20078;-84
2022/03/13 08:30:03;;;;;;;3.35;1.33;;;18.60;46.00;;;;;;4955407;29;20507;-84
2022/03/13 08:32:35;;;;;;;3.00;1.67;;;18.40;45.90;;;;;;4937858;29;20483;-84
2022/03/13 08:35:01;;;;;;;3.03;1.63;;;18.40;46.00;;;;;;4938753;29;20051;-84
2022/03/13 08:37:26;;;;;;;2.58;1.30;;;18.40;45.90;;;;;;4932069;29;20554;-84
2022/03/13 08:39:52;;;;;;;3.50;1.30;;;18.40;45.90;;;;;;4918997;29;20040;-84
2022/03/13 08:42:17;;;;;;;2.58;1.30;;;18.60;46.00;;;;;;4933215;29;20039;-84
2022/03/13 08:44:43;;;;;;;2.72;1.40;;;18.50;46.00;;;;;;4953124;29;20043;-82
2022/03/13 08:47:09;;;;;;;2.72;1.35;;;18.60;46.00;;;;;;4953506;29;20058;-84
2022/03/13 08:49:34;;;;;;;3.10;1.55;;;18.50;46.00;;;;;;4927383;29;20046;-85
2022/03/13 08:52:03;;;;;;;3.40;1.38;;;18.50;46.00;;;;;;4951695;29;20043;-85
2022/03/13 08:54:28;;;;;;;2.30;1.17;;;18.50;46.00;;;;;;4937413;29;20083;-85
2022/03/13 08:56:54;;;;;;;3.80;1.60;;;18.50;46.00;;;;;;4954872;29;20071;-86
2022/03/13 08:59:20;;;;;;;3.28;1.50;;;18.50;46.00;;;;;;4935086;29;20440;-85
2022/03/13 09:01:49;;;;;;;3.17;1.52;;;18.50;46.00;;;;;;4953110;29;20182;-84
2022/03/13 09:04:14;;;;;;;2.53;1.30;;;18.50;45.90;;;;;;4935291;29;20383;-85
2022/03/13 09:06:42;;;;;;;2.35;1.27;;;18.50;45.90;;;;;;4954266;29;20407;-85
2022/03/13 09:09:12;;;;;;;2.30;1.25;;;18.50;46.00;;;;;;4954723;29;20057;-85
2022/03/13 09:11:37;;;;;;;2.40;1.20;;;18.60;46.00;;;;;;4937438;29;20094;-87
2022/03/13 09:16:54;;;;;;;3.25;1.40;;;18.60;46.00;;;;;;5715495;23;20047;-86
2022/03/13 09:19:26;;;;;;;3.22;1.75;;;19.10;46.50;;;;;;4937574;29;20090;-87
2022/03/13 09:21:51;;;;;;;2.72;1.40;;;20.20;47.10;;;;;;4951997;28;20122;-87
2022/03/13 09:24:26;;;;;;;2.90;1.40;;;19.10;46.60;;;;;;4952901;29;20174;-86
2022/03/13 09:26:52;;;;;;;2.33;1.35;;;16.60;45.30;;;;;;4934921;29;20058;-86
2022/03/13 09:29:26;;;;;;;3.50;1.42;;;18.40;45.90;;;;;;4937265;29;20051;-86
2022/03/13 09:32:01;;;;;;;3.15;1.70;;;19.30;46.20;;;;;;4936922;29;20066;-87
2022/03/13 09:34:30;;;;;;;3.35;1.60;;;18.60;46.10;;;;;;4961540;23;20047;-83
2022/03/13 09:40:40;;;;;;;2.88;1.50;;;19.10;46.10;;;;;;4936674;29;20051;-81
2022/03/13 09:43:06;;;;;;;2.72;1.45;;;18.70;45.90;;;;;;4936544;29;20066;-77
2022/03/13 09:45:34;;;;;;;2.80;1.60;;;19.30;46.30;;;;;;4936853;29;20047;-79
2022/03/13 09:48:04;;;;;;;2.78;1.40;;;18.70;45.80;;;;;;4936631;29;20418;-79
2022/03/13 09:50:30;;;;;;;2.30;1.40;;;18.70;45.80;;;;;;4921206;29;20079;-79
2022/03/13 09:53:01;;;;;;;3.20;1.40;;;19.20;46.00;;;;;;4947979;29;20444;-78
2022/03/13 09:59:14;;;;;;;3.15;1.10;;;18.30;45.50;;;;;;4875561;29;20176;-85
2022/03/13 10:02:16;;;;;;;2.65;1.30;;;20.20;46.70;;;;;;4875850;29;20084;-84
2022/03/13 10:04:42;;;;;;;3.13;1.42;;;17.80;45.20;;;;;;4860398;29;20121;-83
2022/03/13 10:07:56;;;;;;;3.60;1.33;;;19.30;46.40;;;;;;4860181;29;20049;-90
2022/03/13 10:11:06;;;;;;;12.55;8.18;;;18.80;45.70;;;;;;4863399;29;20068;-84
2022/03/13 10:14:04;;;;;;;12.52;7.95;;;19.10;45.50;;;;;;4841450;29;20073;-84
2022/03/13 10:24:20;;;;;;;;;;;;;;;;;;;;;
2022/03/13 10:27:27;;;;;;;27.27;22.33;;;19.40;46.70;;;;;;4860761;29;20180;-82
2022/03/13 10:30:17;;;;;;;27.98;21.25;;;18.90;46.60;;;;;;4921789;29;20055;-82
2022/03/13 10:32:43;;;;;;;27.27;22.35;;;18.90;46.70;;;;;;4915038;29;20119;-82
2022/03/13 10:35:13;;;;;;;27.63;22.60;;;18.70;46.80;;;;;;4919892;29;20059;-82
2022/03/13 10:44:08;;;;;;;30.25;21.48;;;20.20;47.80;;;;;;4925320;29;20058;-82
2022/03/13 10:47:01;;;;;;;26.08;22.77;;;17.20;45.60;;;;;;4938498;29;20059;-79
2022/03/13 10:49:45;;;;;;;28.77;22.65;;;19.00;46.40;;;;;;4950729;29;20400;-81
2022/03/13 10:52:45;;;;;;;27.55;21.95;;;19.30;47.30;;;;;;4934848;29;20141;-81
2022/03/13 10:55:42;;;;;;;26.65;21.95;;;18.90;46.30;;;;;;4934772;29;20047;-82
2022/03/13 10:58:08;;;;;;;27.60;22.77;;;18.70;46.10;;;;;;4934178;29;20043;-82
2022/03/13 11:00:46;;;;;;;25.25;21.23;;;18.40;46.90;;;;;;4935230;29;20109;-82
2022/03/13 11:03:34;;;;;;;28.45;22.40;;;19.10;46.90;;;;;;4919401;29;20066;-82
2022/03/13 11:06:08;;;;;;;28.67;22.00;;;18.90;46.40;;;;;;4920787;29;20059;-82
2022/03/13 11:08:40;;;;;;;27.42;21.95;;;18.90;46.20;;;;;;4951740;29;20645;-82
2022/03/13 11:11:09;;;;;;;28.95;23.10;;;20.20;47.00;;;;;;4931609;28;20122;-87
2022/03/13 11:13:36;;;;;;;29.05;21.50;;;18.90;46.40;;;;;;4931674;29;20055;-80
2022/03/13 11:16:09;;;;;;;25.30;21.20;;;19.00;46.20;;;;;;4899707;29;20101;-78
2022/03/13 11:18:35;;;;;;;23.45;20.60;;;19.00;46.20;;;;;;4914294;29;20055;-78
2022/03/13 11:21:06;;;;;;;26.08;20.60;;;19.00;46.10;;;;;;4918121;29;20188;-77
2022/03/13 11:23:35;;;;;;;24.88;20.60;;;19.00;46.10;;;;;;4914242;29;20514;-78
2022/03/13 11:26:01;;;;;;;23.73;19.23;;;19.00;46.10;;;;;;4928219;29;20051;-77
2022/03/13 11:28:28;;;;;;;21.65;17.80;;;19.00;46.10;;;;;;4933100;29;20059;-77
2022/03/13 11:30:59;;;;;;;22.27;18.00;;;19.00;46.10;;;;;;4915002;29;20078;-76
2022/03/13 11:33:32;;;;;;;20.52;17.33;;;19.00;46.10;;;;;;4916214;29;20047;-77
2022/03/13 11:36:25;;;;;;;17.70;15.75;;;19.10;46.10;;;;;;4913595;29;20137;-77
2022/03/13 11:38:55;;;;;;;;;;;19.00;46.00;;;;;;4916083;29;20055;-78
2022/03/13 11:41:38;;;;;;;22.38;16.40;;;19.00;46.10;;;;;;4914628;29;19962;-85
2022/03/13 11:44:23;;;;;;;16.75;12.63;;;19.10;46.10;;;;;;4935762;29;20051;-85
2022/03/13 11:46:59;;;;;;;15.38;12.00;;;19.10;46.00;;;;;;4939725;29;20522;-86
2022/03/13 11:49:30;;;;;;;13.43;9.80;;;19.00;45.90;;;;;;4938863;29;20094;-85
2022/03/13 11:52:26;;;;;;;12.43;9.70;;;19.00;45.90;;;;;;4939239;29;20051;-86
2022/03/13 11:54:59;;;;;;;12.85;9.43;;;19.10;45.80;;;;;;4936698;29;20137;-85
2022/03/13 11:58:13;;;;;;;;;;;;;;;;;;;;;
2022/03/13 12:01:06;;;;;;;12.40;8.73;;;20.60;46.60;;;;;;4934493;29;20137;-84
2022/03/13 12:03:31;;;;;;;11.13;7.95;;;19.10;45.80;;;;;;4955413;29;20075;-85
2022/03/13 12:06:04;;;;;;;9.90;7.68;;;20.40;46.40;;;;;;4923163;29;20074;-85
2022/03/13 12:09:04;;;;;;;10.32;7.75;;;19.10;45.70;;;;;;4929067;29;20099;-85
2022/03/13 12:11:59;;;;;;;10.77;7.88;;;19.10;45.70;;;;;;4920005;29;20102;-83
2022/03/13 12:14:51;;;;;;;9.57;6.90;;;19.10;45.70;;;;;;4920816;29;20059;-85
2022/03/13 12:17:16;;;;;;;9.90;7.20;;;19.10;45.70;;;;;;4934701;29;20060;-85
2022/03/13 12:19:42;;;;;;;9.05;7.10;;;19.10;45.60;;;;;;4934642;29;20062;-86
2022/03/13 12:22:08;;;;;;;9.85;7.15;;;19.70;46.00;;;;;;4937015;29;20632;-87
2022/03/13 12:24:34;;;;;;;9.75;7.00;;;20.40;46.40;;;;;;4919230;29;20154;-87
2022/03/13 12:27:03;;;;;;;9.57;6.88;;;19.10;45.70;;;;;;4919687;29;20118;-87
2022/03/13 12:29:32;;;;;;;8.65;6.68;;;19.10;45.70;;;;;;4925495;29;20435;-88
2022/03/13 12:32:04;;;;;;;10.13;7.20;;;18.80;45.50;;;;;;4942993;29;20053;-87
2022/03/13 12:34:44;;;;;;;9.23;6.53;;;19.10;45.80;;;;;;4904185;29;20134;-87
2022/03/13 12:37:09;;;;;;;9.27;6.88;;;18.30;45.60;;;;;;4918104;29;20067;-87
2022/03/13 12:39:58;;;;;;;10.10;6.80;;;20.80;46.70;;;;;;5162444;23;20051;-88
2022/03/13 12:46:21;;;;;;;9.50;6.13;;;19.00;45.50;;;;;;4955748;29;20037;-86
2022/03/13 12:49:12;;;;;;;9.18;6.68;;;19.60;45.70;;;;;;4938370;29;20062;-86
2022/03/13 12:51:50;;;;;;;8.93;6.47;;;19.20;45.60;;;;;;4936981;29;20067;-86
2022/03/13 12:54:18;;;;;;;9.05;6.60;;;20.80;46.50;;;;;;4938388;29;20047;-86
2022/03/13 12:56:58;;;;;;;8.82;6.78;;;19.20;45.60;;;;;;4937775;29;20069;-86
2022/03/13 12:59:33;;;;;;;8.57;6.32;;;19.20;45.90;;;;;;4938111;29;20122;-86
2022/03/13 13:02:23;;;;;;;8.25;5.90;;;18.90;45.90;;;;;;4939179;29;20563;-87
2022/03/13 13:04:56;;;;;;;8.63;5.95;;;19.30;46.10;;;;;;4936190;29;20094;-86
2022/03/13 13:07:31;;;;;;;8.13;5.88;;;20.50;46.20;;;;;;4927079;29;20102;-86
2022/03/13 13:10:07;;;;;;;8.60;5.38;;;19.30;45.50;;;;;;4936629;29;20075;-86
2022/03/13 13:12:37;;;;;;;7.80;5.57;;;19.30;45.50;;;;;;4932782;29;20570;-86
2022/03/13 13:15:12;;;;;;;8.07;5.85;;;20.50;46.30;;;;;;4936732;29;20063;-87
2022/03/13 13:17:38;;;;;;;8.15;5.90;;;20.40;46.10;;;;;;4951051;29;20048;-86
2022/03/13 13:20:05;;;;;;;7.50;5.32;;;19.30;45.90;;;;;;4908856;29;20061;-87
2022/03/13 13:22:44;;;;;;;7.93;5.50;;;19.40;45.60;;;;;;4928599;29;20087;-86
2022/03/13 13:25:22;;;;;;;8.23;6.22;;;19.70;45.90;;;;;;4918670;29;20604;-87
2022/03/13 13:28:04;;;;;;;7.13;5.22;;;20.30;46.50;;;;;;4945212;29;20118;-87
2022/03/13 13:30:38;;;;;;;;;;;20.50;46.20;;;;;;4955697;29;20119;-87
2022/03/13 13:33:07;;;;;;;8.07;5.03;;;19.40;45.60;;;;;;4936768;29;19938;-87